Terminal Aerodrome Forecast
Issued by NWS Wilmington, NC

Current Version | Previous Version | Text Only | Print | Product List | Glossary On
Versions: 1 2 3 4 5 6 7 8 9 10 11 12 13 14 15 16 17
000
FTUS42 KILM 250525
TAFLBT
TAF
KLBT 250525Z 2506/2606 32002KT P6SM SKC
     FM251600 24007KT P6SM SCT250
     FM252100 24005KT P6SM SCT090 BKN200
     FM260000 24003KT P6SM BKN090 OVC250
     FM260500 30003KT P6SM SKC=

USA.gov is the U.S. government's official web portal to all federal, state and local government web resources and services.